Time,TemperatureF,DewpointF,PressureIn,WindDirection,WindDirectionDegrees,WindSpeedMPH,WindSpeedGustMPH,Humidity,HourlyPrecipIn,Conditions,Clouds,dailyrainin,SolarRadiationWatts/m^2,SoftwareType,DateUTC
2013-11-14 00:05:00,52.6,49.0,30.09,West,271,1.0,3.0,86,0.00,,,0.00,0,weatherlink.com 1.10,2013-11-14 08:05:00,
2013-11-14 00:20:00,52.2,49.0,30.09,West,271,0.0,3.0,87,0.00,,,0.00,0,weatherlink.com 1.10,2013-11-14 08:20:00,
2013-11-14 00:35:00,52.3,49.0,30.09,West,271,0.0,2.0,88,0.00,,,0.00,0,weatherlink.com 1.10,2013-11-14 08:35:00,
2013-11-14 00:50:00,52.7,49.0,30.08,West,271,1.0,1.0,88,0.00,,,0.00,0,weatherlink.com 1.10,2013-11-14 08:50:00,
2013-11-14 01:05:00,53.0,49.0,30.08,West,271,0.0,2.0,87,0.00,,,0.00,0,weatherlink.com 1.10,2013-11-14 09:05:00,
2013-11-14 01:20:00,52.5,49.0,30.08,West,271,0.0,3.0,86,0.00,,,0.00,0,weatherlink.com 1.10,2013-11-14 09:20:00,
2013-11-14 01:35:00,52.6,49.0,30.08,West,271,0.0,1.0,87,0.00,,,0.00,0,weatherlink.com 1.10,2013-11-14 09:35:00,
2013-11-14 01:50:00,52.6,49.0,30.08,West,271,0.0,1.0,87,0.00,,,0.00,0,weatherlink.com 1.10,2013-11-14 09:50:00,
2013-11-14 02:05:00,52.1,48.0,30.08,West,271,1.0,2.0,86,0.00,,,0.00,0,weatherlink.com 1.10,2013-11-14 10:05:00,
2013-11-14 02:20:00,51.4,48.0,30.08,West,271,0.0,2.0,87,0.00,,,0.00,0,weatherlink.com 1.10,2013-11-14 10:20:00,
2013-11-14 02:35:00,51.2,48.0,30.07,West,271,0.0,0.0,88,0.00,,,0.00,0,weatherlink.com 1.10,2013-11-14 10:35:00,
2013-11-14 02:50:00,51.2,48.0,30.07,West,271,0.0,0.0,88,0.00,,,0.00,0,weatherlink.com 1.10,2013-11-14 10:50:00,
2013-11-14 03:05:00,51.1,48.0,30.06,West,271,0.0,0.0,88,0.00,,,0.00,0,weatherlink.com 1.10,2013-11-14 11:05:00,
2013-11-14 03:20:00,51.3,48.0,30.06,West,271,0.0,0.0,89,0.00,,,0.00,0,weatherlink.com 1.10,2013-11-14 11:20:00,
2013-11-14 03:35:00,51.3,48.0,30.06,West,271,0.0,1.0,88,0.00,,,0.00,0,weatherlink.com 1.10,2013-11-14 11:35:00,
2013-11-14 03:50:00,51.0,48.0,30.05,West,271,0.0,0.0,88,0.00,,,0.00,0,weatherlink.com 1.10,2013-11-14 11:50:00,
2013-11-14 04:05:00,50.9,48.0,30.05,West,271,0.0,0.0,88,0.00,,,0.00,0,weatherlink.com 1.10,2013-11-14 12:05:00,
2013-11-14 04:20:00,50.9,48.0,30.05,West,271,0.0,1.0,88,0.00,,,0.00,0,weatherlink.com 1.10,2013-11-14 12:20:00,
2013-11-14 04:35:00,50.3,47.0,30.06,West,271,0.0,1.0,88,0.00,,,0.00,0,weatherlink.com 1.10,2013-11-14 12:35:00,
2013-11-14 04:50:00,50.1,47.0,30.06,West,271,0.0,2.0,89,0.00,,,0.00,0,weatherlink.com 1.10,2013-11-14 12:50:00,
2013-11-14 05:05:00,49.8,47.0,30.05,West,271,0.0,2.0,89,0.00,,,0.00,0,weatherlink.com 1.10,2013-11-14 13:05:00,
2013-11-14 05:21:00,49.3,46.0,30.04,West,271,0.0,2.0,89,0.00,,,0.00,0,weatherlink.com 1.10,2013-11-14 13:21:00,
2013-11-14 05:36:00,49.0,46.0,30.05,West,271,0.0,1.0,90,0.00,,,0.00,0,weatherlink.com 1.10,2013-11-14 13:36:00,
2013-11-14 05:51:00,49.1,47.0,30.05,West,271,0.0,0.0,91,0.00,,,0.00,0,weatherlink.com 1.10,2013-11-14 13:51:00,
2013-11-14 06:06:00,49.0,47.0,30.05,West,271,0.0,0.0,91,0.00,,,0.00,0,weatherlink.com 1.10,2013-11-14 14:06:00,
2013-11-14 06:21:00,48.9,46.0,30.05,West,271,0.0,0.0,91,0.00,,,0.00,0,weatherlink.com 1.10,2013-11-14 14:21:00,
2013-11-14 06:36:00,49.0,47.0,30.05,West,271,0.0,1.0,92,0.00,,,0.00,0,weatherlink.com 1.10,2013-11-14 14:36:00,
2013-11-14 06:51:00,49.0,47.0,30.05,West,271,0.0,0.0,92,0.00,,,0.00,5,weatherlink.com 1.10,2013-11-14 14:51:00,
2013-11-14 07:06:00,48.8,47.0,30.05,West,271,0.0,0.0,92,0.00,,,0.00,14,weatherlink.com 1.10,2013-11-14 15:06:00,
2013-11-14 07:21:00,48.9,47.0,30.05,West,271,0.0,0.0,92,0.00,,,0.00,25,weatherlink.com 1.10,2013-11-14 15:21:00,
2013-11-14 07:36:00,49.2,47.0,30.06,West,271,0.0,0.0,92,0.00,,,0.00,42,weatherlink.com 1.10,2013-11-14 15:36:00,
2013-11-14 07:51:00,49.6,48.0,30.06,West,271,0.0,0.0,93,0.00,,,0.00,76,weatherlink.com 1.10,2013-11-14 15:51:00,
2013-11-14 08:06:00,50.0,48.0,30.07,West,271,0.0,0.0,93,0.00,,,0.00,63,weatherlink.com 1.10,2013-11-14 16:06:00,
2013-11-14 08:21:00,50.5,49.0,30.07,West,270,0.0,1.0,94,0.00,,,0.00,90,weatherlink.com 1.10,2013-11-14 16:21:00,
2013-11-14 08:36:00,51.2,50.0,30.08,West,270,0.0,0.0,94,0.00,,,0.00,42,weatherlink.com 1.10,2013-11-14 16:36:00,
2013-11-14 08:51:00,51.8,50.0,30.07,West,270,0.0,0.0,94,0.00,,,0.00,77,weatherlink.com 1.10,2013-11-14 16:51:00,
2013-11-14 09:06:00,52.7,51.0,30.07,West,270,0.0,1.0,94,0.00,,,0.00,120,weatherlink.com 1.10,2013-11-14 17:06:00,
2013-11-14 09:21:00,53.7,52.0,30.06,West,270,0.0,1.0,94,0.00,,,0.00,155,weatherlink.com 1.10,2013-11-14 17:21:00,
2013-11-14 09:36:00,57.4,54.0,30.05,West,270,0.0,1.0,87,0.00,,,0.00,90,weatherlink.com 1.10,2013-11-14 17:36:00,
2013-11-14 09:51:00,58.4,53.0,30.05,West,270,0.0,1.0,82,0.00,,,0.00,83,weatherlink.com 1.10,2013-11-14 17:51:00,
2013-11-14 10:06:00,59.1,53.0,30.05,West,270,0.0,2.0,81,0.00,,,0.00,93,weatherlink.com 1.10,2013-11-14 18:06:00,
2013-11-14 10:21:00,60.0,53.0,30.04,West,270,0.0,2.0,78,0.00,,,0.00,171,weatherlink.com 1.10,2013-11-14 18:21:00,
2013-11-14 10:36:00,61.3,53.0,30.04,West,270,0.0,2.0,75,0.00,,,0.00,162,weatherlink.com 1.10,2013-11-14 18:36:00,
2013-11-14 10:51:00,62.8,53.0,30.04,West,264,1.0,4.0,70,0.00,,,0.00,135,weatherlink.com 1.10,2013-11-14 18:51:00,
2013-11-14 11:06:00,64.2,53.0,30.03,West,269,4.0,6.0,67,0.00,,,0.00,659,weatherlink.com 1.10,2013-11-14 19:06:00,
2013-11-14 11:21:00,65.1,53.0,30.02,West,269,4.0,4.0,65,0.00,,,0.00,601,weatherlink.com 1.10,2013-11-14 19:21:00,
2013-11-14 11:36:00,65.2,54.0,30.01,West,279,2.0,4.0,67,0.00,,,0.00,538,weatherlink.com 1.10,2013-11-14 19:36:00,
2013-11-14 11:51:00,66.8,54.0,30.00,West,279,0.0,2.0,63,0.00,,,0.00,214,weatherlink.com 1.10,2013-11-14 19:51:00,
2013-11-14 12:06:00,67.3,52.0,29.99,West,275,1.0,3.0,58,0.00,,,0.00,139,weatherlink.com 1.10,2013-11-14 20:06:00,
2013-11-14 12:22:00,67.9,51.0,29.98,West,277,5.0,6.0,56,0.00,,,0.00,91,weatherlink.com 1.10,2013-11-14 20:22:00,
2013-11-14 12:37:00,67.7,52.0,29.98,West,269,4.0,6.0,58,0.00,,,0.00,111,weatherlink.com 1.10,2013-11-14 20:37:00,
2013-11-14 12:52:00,67.4,53.0,29.98,WNW,284,4.0,7.0,61,0.00,,,0.00,135,weatherlink.com 1.10,2013-11-14 20:52:00,
2013-11-14 13:07:00,66.5,52.0,29.98,West,263,3.0,7.0,61,0.00,,,0.00,174,weatherlink.com 1.10,2013-11-14 21:07:00,
2013-11-14 13:22:00,65.6,52.0,29.97,WNW,288,3.0,5.0,61,0.00,,,0.00,156,weatherlink.com 1.10,2013-11-14 21:22:00,
2013-11-14 13:37:00,65.4,52.0,29.97,West,268,2.0,5.0,63,0.00,,,0.00,146,weatherlink.com 1.10,2013-11-14 21:37:00,
2013-11-14 13:52:00,65.7,52.0,29.96,West,279,1.0,4.0,62,0.00,,,0.00,153,weatherlink.com 1.10,2013-11-14 21:52:00,
2013-11-14 14:07:00,66.0,52.0,29.96,West,279,1.0,7.0,61,0.00,,,0.00,118,weatherlink.com 1.10,2013-11-14 22:07:00,
2013-11-14 14:22:00,65.5,52.0,29.95,WNW,283,2.0,3.0,62,0.00,,,0.00,84,weatherlink.com 1.10,2013-11-14 22:22:00,
2013-11-14 14:37:00,65.3,51.0,29.94,West,273,0.0,3.0,61,0.00,,,0.00,63,weatherlink.com 1.10,2013-11-14 22:37:00,
2013-11-14 14:52:00,64.6,52.0,29.94,West,274,1.0,4.0,63,0.00,,,0.00,76,weatherlink.com 1.10,2013-11-14 22:52:00,
2013-11-14 15:07:00,63.8,52.0,29.93,West,271,3.0,4.0,66,0.00,,,0.00,60,weatherlink.com 1.10,2013-11-14 23:07:00,
2013-11-14 15:22:00,63.2,52.0,29.93,West,268,0.0,3.0,66,0.00,,,0.00,47,weatherlink.com 1.10,2013-11-14 23:22:00,
2013-11-14 15:37:00,63.0,52.0,29.93,West,268,0.0,1.0,68,0.00,,,0.00,44,weatherlink.com 1.10,2013-11-14 23:37:00,
2013-11-14 15:52:00,62.9,52.0,29.93,West,268,0.0,0.0,68,0.00,,,0.00,39,weatherlink.com 1.10,2013-11-14 23:52:00,
2013-11-14 16:07:00,62.6,51.0,29.92,WSW,252,0.0,1.0,67,0.00,,,0.00,28,weatherlink.com 1.10,2013-11-15 00:07:00,
2013-11-14 16:22:00,62.2,52.0,29.92,WSW,252,0.0,0.0,70,0.00,,,0.00,16,weatherlink.com 1.10,2013-11-15 00:22:00,
2013-11-14 16:37:00,61.7,52.0,29.92,WSW,252,0.0,1.0,70,0.00,,,0.00,5,weatherlink.com 1.10,2013-11-15 00:37:00,
2013-11-14 16:52:00,60.9,51.0,29.91,WSW,252,0.0,1.0,71,0.00,,,0.00,0,weatherlink.com 1.10,2013-11-15 00:52:00,
2013-11-14 17:07:00,60.1,51.0,29.90,WSW,252,0.0,1.0,73,0.00,,,0.00,0,weatherlink.com 1.10,2013-11-15 01:07:00,
2013-11-14 17:22:00,59.1,51.0,29.90,WSW,252,0.0,1.0,75,0.00,,,0.00,0,weatherlink.com 1.10,2013-11-15 01:22:00,
2013-11-14 17:37:00,58.4,51.0,29.90,WSW,252,0.0,0.0,75,0.00,,,0.00,0,weatherlink.com 1.10,2013-11-15 01:37:00,
2013-11-14 17:52:00,57.6,50.0,29.90,WSW,252,0.0,0.0,76,0.00,,,0.00,0,weatherlink.com 1.10,2013-11-15 01:52:00,
2013-11-14 18:07:00,56.8,50.0,29.90,WSW,252,0.0,0.0,77,0.00,,,0.00,0,weatherlink.com 1.10,2013-11-15 02:07:00,
2013-11-14 18:22:00,56.1,49.0,29.90,WSW,252,0.0,0.0,78,0.00,,,0.00,0,weatherlink.com 1.10,2013-11-15 02:22:00,
2013-11-14 18:37:00,55.4,49.0,29.89,WSW,252,0.0,0.0,79,0.00,,,0.00,0,weatherlink.com 1.10,2013-11-15 02:37:00,
2013-11-14 18:52:00,54.7,48.0,29.89,WSW,252,0.0,0.0,79,0.00,,,0.00,0,weatherlink.com 1.10,2013-11-15 02:52:00,
2013-11-14 19:07:00,54.1,48.0,29.89,WSW,252,0.0,0.0,80,0.00,,,0.00,0,weatherlink.com 1.10,2013-11-15 03:07:00,
2013-11-14 19:22:00,53.5,48.0,29.89,WSW,252,0.0,0.0,81,0.00,,,0.00,0,weatherlink.com 1.10,2013-11-15 03:22:00,
2013-11-14 19:37:00,52.9,47.0,29.88,WSW,252,0.0,0.0,81,0.00,,,0.00,0,weatherlink.com 1.10,2013-11-15 03:37:00,
2013-11-14 19:52:00,53.2,45.0,29.88,West,270,4.0,5.0,74,0.00,,,0.00,0,weatherlink.com 1.10,2013-11-15 03:52:00,
2013-11-14 20:07:00,55.5,45.0,29.88,West,267,4.0,5.0,68,0.00,,,0.00,0,weatherlink.com 1.10,2013-11-15 04:07:00,
2013-11-14 20:22:00,56.1,44.0,29.88,West,269,4.0,6.0,65,0.00,,,0.00,0,weatherlink.com 1.10,2013-11-15 04:22:00,
2013-11-14 20:37:00,56.4,44.0,29.87,West,278,5.0,8.0,63,0.00,,,0.00,0,weatherlink.com 1.10,2013-11-15 04:37:00,
2013-11-14 20:52:00,56.9,43.0,29.87,WNW,288,6.0,7.0,60,0.00,,,0.00,0,weatherlink.com 1.10,2013-11-15 04:52:00,
2013-11-14 21:07:00,57.4,43.0,29.87,West,277,7.0,9.0,59,0.00,,,0.00,0,weatherlink.com 1.10,2013-11-15 05:07:00,
2013-11-14 21:22:00,57.3,43.0,29.87,WNW,286,4.0,8.0,59,0.00,,,0.00,0,weatherlink.com 1.10,2013-11-15 05:22:00,
2013-11-14 21:37:00,57.2,42.0,29.87,West,272,8.0,9.0,58,0.00,,,0.00,0,weatherlink.com 1.10,2013-11-15 05:37:00,
2013-11-14 21:52:00,56.9,42.0,29.87,West,271,5.0,7.0,58,0.00,,,0.00,0,weatherlink.com 1.10,2013-11-15 05:52:00,
2013-11-14 22:07:00,56.9,42.0,29.87,West,270,3.0,7.0,57,0.00,,,0.00,0,weatherlink.com 1.10,2013-11-15 06:07:00,
2013-11-14 22:22:00,56.5,41.0,29.86,West,266,3.0,7.0,57,0.00,,,0.00,0,weatherlink.com 1.10,2013-11-15 06:22:00,
2013-11-14 22:37:00,56.1,41.0,29.86,West,279,4.0,7.0,57,0.00,,,0.00,0,weatherlink.com 1.10,2013-11-15 06:37:00,
2013-11-14 22:52:00,55.7,41.0,29.86,West,271,6.0,8.0,58,0.00,,,0.00,0,weatherlink.com 1.10,2013-11-15 06:52:00,
2013-11-14 23:07:00,55.4,41.0,29.87,WNW,286,2.0,7.0,59,0.00,,,0.00,0,weatherlink.com 1.10,2013-11-15 07:07:00,
2013-11-14 23:22:00,55.0,40.0,29.86,West,276,5.0,8.0,58,0.00,,,0.00,0,weatherlink.com 1.10,2013-11-15 07:22:00,
2013-11-14 23:37:00,55.0,40.0,29.86,West,273,5.0,8.0,57,0.00,,,0.00,0,weatherlink.com 1.10,2013-11-15 07:37:00,
2013-11-14 23:52:00,54.8,39.0,29.86,West,273,1.0,5.0,55,0.00,,,0.00,0,weatherlink.com 1.10,2013-11-15 07:52:00,